Time;durP1;ratioP1;P1;durP2;ratioP2;P2;SDS_P1;SDS_P2;PMS_P1;PMS_P2;Temp;Humidity;BMP_temperature;BMP_pressure;BME280_temperature;BME280_humidity;BME280_pressure;Samples;Min_cycle;Max_cycle;Signal;HPM_P1;HPM_P2
2021/11/10 05:34:28;;;;;;;18.08;9.43;;;16.20;70.10;;;;;;5156638;24;20057;-71
2021/11/10 05:36:53;;;;;;;17.40;8.77;;;16.10;70.00;;;;;;4828278;29;20354;-79
2021/11/10 05:39:19;;;;;;;17.50;8.27;;;16.20;70.40;;;;;;4845140;29;20050;-76
2021/11/10 05:41:48;;;;;;;13.98;8.35;;;16.10;71.70;;;;;;4845751;29;20473;-76
2021/11/10 05:44:15;;;;;;;12.88;8.00;;;16.10;72.90;;;;;;4829510;29;20370;-76
2021/11/10 05:46:42;;;;;;;11.80;6.93;;;16.20;74.50;;;;;;4845384;29;20185;-75
2021/11/10 05:49:08;;;;;;;15.57;6.20;;;16.30;73.40;;;;;;4845476;29;20053;-74
2021/11/10 05:51:34;;;;;;;11.32;5.82;;;16.50;72.80;;;;;;4845449;29;20149;-72
2021/11/10 05:54:00;;;;;;;12.93;5.85;;;16.60;72.60;;;;;;4846235;29;20089;-72
2021/11/10 05:56:27;;;;;;;9.25;5.00;;;16.80;72.40;;;;;;4845562;29;20049;-72
2021/11/10 05:58:58;;;;;;;11.30;4.90;;;16.90;72.20;;;;;;4845223;29;20062;-73
2021/11/10 06:01:27;;;;;;;14.55;5.68;;;17.10;72.10;;;;;;4829520;29;20061;-72
2021/11/10 06:03:54;;;;;;;17.27;5.25;;;17.20;72.20;;;;;;4828702;29;20516;-74
2021/11/10 06:06:21;;;;;;;11.80;5.13;;;17.20;72.20;;;;;;4829798;29;20057;-72
2021/11/10 06:08:47;;;;;;;13.85;5.10;;;17.30;72.30;;;;;;4845563;29;20046;-73
2021/11/10 06:11:13;;;;;;;16.70;5.07;;;17.30;72.30;;;;;;4829383;29;20506;-72
2021/11/10 06:13:40;;;;;;;9.90;4.45;;;17.40;72.50;;;;;;4845332;29;20377;-72
2021/11/10 06:16:07;;;;;;;13.70;5.03;;;17.40;72.60;;;;;;4844797;29;20056;-74
2021/11/10 06:18:33;;;;;;;17.85;4.95;;;17.50;72.60;;;;;;4845280;29;20056;-72
2021/11/10 06:21:00;;;;;;;11.80;4.85;;;17.50;72.50;;;;;;4845031;29;20053;-72
2021/11/10 06:23:29;;;;;;;16.60;4.40;;;17.50;72.40;;;;;;4844985;29;20100;-79
2021/11/10 06:25:58;;;;;;;10.75;3.95;;;17.60;72.50;;;;;;4829093;29;20120;-75
2021/11/10 06:28:24;;;;;;;13.18;4.22;;;17.60;72.40;;;;;;4842936;29;20129;-74
2021/11/10 06:30:50;;;;;;;14.00;4.05;;;17.60;72.30;;;;;;4841937;29;20137;-74
2021/11/10 06:33:16;;;;;;;12.20;4.55;;;17.60;72.10;;;;;;4844793;29;20489;-75
2021/11/10 06:35:42;;;;;;;11.75;3.70;;;17.70;71.90;;;;;;4828628;29;20377;-75
2021/11/10 06:38:08;;;;;;;11.82;4.05;;;17.80;71.70;;;;;;4845467;29;20446;-75
2021/11/10 06:40:33;;;;;;;18.45;4.10;;;17.90;71.80;;;;;;4844935;29;20501;-75
2021/11/10 06:42:59;;;;;;;9.65;3.97;;;17.90;71.40;;;;;;4845001;29;20053;-73
2021/11/10 06:45:25;;;;;;;14.73;4.43;;;18.00;71.30;;;;;;4845046;29;20053;-74
2021/11/10 06:47:51;;;;;;;22.05;5.90;;;18.00;71.30;;;;;;4843712;29;20480;-73
2021/11/10 06:50:17;;;;;;;15.80;5.20;;;18.00;70.10;;;;;;4828805;29;20069;-72
2021/11/10 06:52:43;;;;;;;19.38;5.93;;;18.00;70.20;;;;;;4844776;29;20142;-72
2021/11/10 06:55:09;;;;;;;19.23;6.05;;;18.10;70.00;;;;;;4843650;29;20049;-72
2021/11/10 06:57:35;;;;;;;21.45;4.35;;;18.10;69.90;;;;;;4844834;29;20058;-72
2021/11/10 07:00:05;;;;;;;15.80;4.68;;;18.10;69.90;;;;;;4844302;29;20128;-74
2021/11/10 07:02:31;;;;;;;16.05;5.53;;;18.10;69.90;;;;;;4844798;29;20061;-73
2021/11/10 07:04:56;;;;;;;12.95;4.60;;;18.10;69.90;;;;;;4844607;29;20121;-73
2021/11/10 07:07:22;;;;;;;14.55;4.85;;;18.00;69.90;;;;;;4844671;29;20346;-73
2021/11/10 07:09:48;;;;;;;15.38;5.03;;;18.00;70.10;;;;;;4844326;29;20494;-74
2021/11/10 07:12:13;;;;;;;16.02;4.85;;;18.00;70.20;;;;;;4828156;29;20060;-78
2021/11/10 07:14:39;;;;;;;18.77;5.40;;;17.90;70.20;;;;;;4828189;29;20082;-74
2021/11/10 07:17:05;;;;;;;13.95;5.70;;;17.90;70.20;;;;;;4844259;29;20054;-73
2021/11/10 07:19:31;;;;;;;14.18;4.88;;;17.90;70.00;;;;;;4844309;29;20074;-73
2021/11/10 07:21:56;;;;;;;14.13;5.82;;;17.80;69.90;;;;;;4843898;29;20061;-73
2021/11/10 07:24:24;;;;;;;16.45;5.75;;;17.80;69.90;;;;;;4844494;29;20046;-74
2021/11/10 07:26:50;;;;;;;11.85;5.15;;;17.80;69.80;;;;;;4828893;29;20054;-74
2021/11/10 07:29:16;;;;;;;12.70;5.35;;;17.70;69.80;;;;;;4844815;29;20406;-75
2021/11/10 07:31:41;;;;;;;9.13;4.85;;;17.60;69.80;;;;;;4828355;29;20438;-73
2021/11/10 07:34:07;;;;;;;13.43;4.60;;;17.60;69.90;;;;;;4844245;29;20046;-74
2021/11/10 07:36:33;;;;;;;10.90;5.45;;;17.60;70.00;;;;;;4843879;29;20079;-72
2021/11/10 07:38:59;;;;;;;14.00;4.57;;;17.60;69.90;;;;;;4844292;29;20134;-74
2021/11/10 07:41:29;;;;;;;11.50;5.60;;;17.50;70.00;;;;;;4844128;29;20050;-73
2021/11/10 07:43:55;;;;;;;17.80;8.73;;;17.50;70.10;;;;;;4828280;29;20526;-74
2021/11/10 07:46:24;;;;;;;19.85;9.35;;;17.50;70.10;;;;;;4828224;29;20365;-73
2021/11/10 07:48:50;;;;;;;19.38;11.10;;;17.50;69.40;;;;;;4843179;29;20057;-72
2021/11/10 07:51:19;;;;;;;19.92;10.45;;;17.50;68.40;;;;;;4843986;29;20342;-76
2021/11/10 07:53:46;;;;;;;19.58;10.57;;;17.50;67.60;;;;;;4843922;29;20132;-75
2021/11/10 07:56:12;;;;;;;15.35;8.20;;;17.50;67.60;;;;;;4843767;29;20393;-74
2021/11/10 07:58:39;;;;;;;18.10;8.90;;;17.40;67.70;;;;;;4845304;29;20053;-74
2021/11/10 08:01:09;;;;;;;17.25;8.48;;;17.40;67.80;;;;;;4831047;29;20065;-75
2021/11/10 08:03:35;;;;;;;20.40;8.95;;;17.30;67.80;;;;;;4830760;29;20066;-73
2021/11/10 08:06:01;;;;;;;16.33;7.90;;;17.30;68.10;;;;;;4847953;29;20068;-76
2021/11/10 08:08:28;;;;;;;18.00;8.18;;;17.20;68.20;;;;;;4846956;29;20378;-74
2021/11/10 08:11:00;;;;;;;19.05;8.25;;;17.20;68.40;;;;;;4847168;29;20132;-74
2021/11/10 08:13:27;;;;;;;20.42;8.02;;;17.20;68.20;;;;;;4831097;29;20131;-74
2021/11/10 08:15:56;;;;;;;19.80;8.82;;;17.20;68.00;;;;;;4846115;29;20046;-76
2021/11/10 08:18:23;;;;;;;20.63;8.63;;;17.20;67.80;;;;;;4847041;29;20058;-75
2021/11/10 08:20:49;;;;;;;20.63;9.57;;;17.20;67.50;;;;;;4846826;29;20050;-75
2021/11/10 08:23:20;;;;;;;17.08;7.90;;;17.20;67.30;;;;;;4830626;29;20071;-75
2021/11/10 08:25:49;;;;;;;17.48;8.55;;;17.10;67.00;;;;;;4846992;29;20118;-74
2021/11/10 08:28:15;;;;;;;20.67;8.85;;;17.10;67.00;;;;;;4846742;29;20410;-73
2021/11/10 08:30:41;;;;;;;18.98;8.55;;;17.10;67.00;;;;;;4846569;29;20133;-73
2021/11/10 08:33:07;;;;;;;20.77;9.73;;;17.10;66.90;;;;;;4846624;29;20057;-75
2021/11/10 08:35:33;;;;;;;19.13;8.32;;;17.10;66.80;;;;;;4846618;29;20339;-74
2021/11/10 08:37:58;;;;;;;22.00;10.05;;;17.10;66.70;;;;;;4845881;29;20445;-73
2021/11/10 08:40:26;;;;;;;16.65;8.75;;;17.00;66.60;;;;;;4845839;29;20133;-74
2021/11/10 08:42:52;;;;;;;23.73;9.15;;;17.00;66.60;;;;;;4845900;29;20469;-74
2021/11/10 08:45:23;;;;;;;15.15;8.13;;;17.00;66.60;;;;;;4844718;29;20061;-73
2021/11/10 08:47:51;;;;;;;18.90;8.65;;;17.00;66.80;;;;;;4836137;29;20141;-75
2021/11/10 08:50:19;;;;;;;20.00;8.68;;;17.00;67.00;;;;;;4864255;29;20077;-75
2021/11/10 08:52:45;;;;;;;26.67;8.70;;;16.90;67.30;;;;;;4849412;29;20058;-74
2021/11/10 08:55:12;;;;;;;17.17;7.80;;;16.90;67.40;;;;;;4846148;29;20050;-73
2021/11/10 08:57:40;;;;;;;16.02;7.45;;;16.90;67.60;;;;;;4863081;29;20165;-73
2021/11/10 09:00:09;;;;;;;18.48;7.70;;;16.90;67.70;;;;;;4864594;29;20425;-75
2021/11/10 09:02:36;;;;;;;17.73;7.60;;;16.90;68.00;;;;;;4861717;29;20058;-73
2021/11/10 09:05:03;;;;;;;16.95;7.30;;;16.90;68.10;;;;;;4836008;29;20137;-74
2021/11/10 09:07:29;;;;;;;19.02;6.88;;;16.90;68.10;;;;;;4864687;29;20045;-73
2021/11/10 09:09:54;;;;;;;15.10;7.30;;;16.80;68.20;;;;;;4851335;29;20060;-73
2021/11/10 09:12:20;;;;;;;14.43;7.05;;;16.80;68.40;;;;;;4830102;29;20065;-74
2021/11/10 09:14:46;;;;;;;16.38;7.10;;;16.80;68.60;;;;;;4846253;29;20446;-74
2021/11/10 09:17:12;;;;;;;18.95;7.28;;;16.80;68.70;;;;;;4829602;29;20069;-74
2021/11/10 09:19:39;;;;;;;17.65;7.22;;;16.60;68.70;;;;;;4845693;29;20477;-73
2021/11/10 09:22:05;;;;;;;18.95;6.82;;;16.70;69.10;;;;;;4846061;29;20046;-74
2021/11/10 09:24:35;;;;;;;17.13;6.80;;;16.70;69.20;;;;;;4845612;29;20102;-74
2021/11/10 09:27:02;;;;;;;15.52;6.68;;;16.70;69.30;;;;;;4846182;29;20403;-73
2021/11/10 09:29:29;;;;;;;22.60;7.47;;;16.70;69.50;;;;;;4846169;29;20114;-73
2021/11/10 09:31:55;;;;;;;21.95;8.07;;;16.70;69.70;;;;;;4846007;29;20054;-74
2021/11/10 09:34:21;;;;;;;24.73;7.65;;;16.70;70.00;;;;;;4845765;29;20061;-73
2021/11/10 09:36:50;;;;;;;28.65;8.18;;;16.70;70.00;;;;;;4829314;29;20389;-72
2021/11/10 09:39:21;;;;;;;24.23;7.93;;;16.70;70.00;;;;;;4829587;29;20176;-75
2021/11/10 09:41:49;;;;;;;24.02;7.30;;;16.80;70.00;;;;;;4845970;29;20042;-74
2021/11/10 09:44:16;;;;;;;24.25;7.35;;;16.70;70.10;;;;;;4845630;29;20057;-74
2021/11/10 09:46:43;;;;;;;25.95;6.80;;;16.80;70.10;;;;;;4845241;29;20054;-75
2021/11/10 09:49:10;;;;;;;15.90;6.82;;;16.80;70.10;;;;;;4829746;29;20484;-77
2021/11/10 09:51:39;;;;;;;15.98;6.70;;;16.60;70.00;;;;;;4845887;29;20070;-77
2021/11/10 09:54:06;;;;;;;17.92;7.03;;;16.40;70.40;;;;;;4845653;29;20054;-78
2021/11/10 09:56:34;;;;;;;16.27;7.05;;;16.30;70.60;;;;;;4829489;29;20089;-76
2021/11/10 09:59:01;;;;;;;26.83;7.15;;;16.20;71.00;;;;;;4844600;29;20097;-75
2021/11/10 10:01:27;;;;;;;17.67;6.88;;;16.20;71.30;;;;;;4844694;29;20056;-75
2021/11/10 10:03:54;;;;;;;14.43;7.10;;;16.20;71.40;;;;;;4828935;29;20146;-74
2021/11/10 10:06:20;;;;;;;17.55;6.55;;;16.30;71.40;;;;;;4844976;29;20467;-76
2021/11/10 10:08:47;;;;;;;19.10;6.32;;;16.30;71.40;;;;;;4845283;29;20060;-73
2021/11/10 10:11:14;;;;;;;18.02;5.82;;;16.30;71.40;;;;;;4845456;29;20061;-75
2021/11/10 10:13:40;;;;;;;18.35;6.35;;;16.40;71.30;;;;;;4844757;29;20046;-74
2021/11/10 10:16:07;;;;;;;18.58;8.25;;;16.50;71.20;;;;;;4845171;29;20410;-77
2021/11/10 10:18:34;;;;;;;20.02;9.57;;;16.50;70.80;;;;;;4829134;29;20129;-75
2021/11/10 10:21:07;;;;;;;18.58;9.73;;;16.50;70.30;;;;;;4844942;29;20136;-74
2021/11/10 10:23:42;;;;;;;18.90;9.50;;;16.60;69.70;;;;;;4828838;29;20121;-75
2021/11/10 10:26:21;;;;;;;17.60;9.50;;;16.60;69.30;;;;;;4832601;29;20049;-74
2021/11/10 10:28:50;;;;;;;22.95;10.80;;;16.60;69.00;;;;;;4844356;29;20117;-74
2021/11/10 10:31:24;;;;;;;17.73;9.15;;;16.60;68.80;;;;;;4845292;29;20084;-74
2021/11/10 10:33:51;;;;;;;;;;;16.60;69.00;;;;;;4845344;29;20053;-73
2021/11/10 10:36:21;;;;;;;18.15;7.80;;;16.50;68.90;;;;;;4844610;29;19979;-74
2021/11/10 10:38:56;;;;;;;20.50;8.18;;;16.50;69.20;;;;;;4843856;29;20057;-75
2021/11/10 10:41:28;;;;;;;17.92;6.82;;;16.60;69.10;;;;;;4844465;29;20062;-76
2021/11/10 10:43:57;;;;;;;15.45;7.25;;;16.70;69.00;;;;;;4844508;29;20069;-77
2021/11/10 10:46:28;;;;;;;16.90;6.05;;;16.80;68.90;;;;;;4828662;29;20093;-76
2021/11/10 10:49:13;;;;;;;12.18;5.97;;;16.90;69.00;;;;;;4844552;29;20057;-78
2021/11/10 10:51:40;;;;;;;11.35;6.05;;;17.00;68.90;;;;;;4844449;29;20046;-76
2021/11/10 10:54:07;;;;;;;13.13;6.10;;;17.10;68.90;;;;;;4844150;29;20053;-76
2021/11/10 10:56:35;;;;;;;15.77;5.45;;;17.10;68.90;;;;;;4844334;29;20057;-77
2021/11/10 10:59:11;;;;;;;14.35;6.00;;;17.10;68.90;;;;;;4844536;29;20066;-77
2021/11/10 11:01:50;;;;;;;15.55;4.93;;;17.20;68.90;;;;;;4845094;29;20145;-77
2021/11/10 11:04:19;;;;;;;13.07;5.10;;;17.20;69.10;;;;;;4844115;29;20061;-76
2021/11/10 11:07:09;;;;;;;11.55;4.97;;;17.20;69.00;;;;;;4844449;29;20058;-77
2021/11/10 11:09:42;;;;;;;11.15;5.05;;;17.30;69.00;;;;;;4844135;29;20053;-76
2021/11/10 11:12:32;;;;;;;12.38;4.68;;;17.30;68.90;;;;;;4844523;29;20054;-76
2021/11/10 11:15:24;;;;;;;17.63;5.85;;;17.30;68.90;;;;;;4844088;29;20046;-77
2021/11/10 11:17:53;;;;;;;12.70;4.88;;;17.40;68.90;;;;;;4844274;29;20065;-76
2021/11/10 11:20:21;;;;;;;9.70;4.50;;;17.40;68.90;;;;;;4843884;29;20150;-76
2021/11/10 11:22:47;;;;;;;11.27;4.22;;;17.40;68.90;;;;;;4843870;29;20050;-76
2021/11/10 11:25:35;;;;;;;8.93;4.57;;;17.50;68.90;;;;;;4844132;29;20438;-74
2021/11/10 11:28:05;;;;;;;11.40;4.68;;;17.50;68.80;;;;;;4844612;29;20405;-74
2021/11/10 11:30:36;;;;;;;11.10;4.78;;;17.60;68.70;;;;;;4843931;29;20129;-74
2021/11/10 11:33:11;;;;;;;7.70;4.15;;;17.70;68.50;;;;;;4844749;29;20430;-74
2021/11/10 11:35:45;;;;;;;12.82;5.00;;;17.80;68.40;;;;;;4831238;29;20058;-75
2021/11/10 11:38:20;;;;;;;8.88;4.10;;;17.90;68.70;;;;;;4847707;29;20057;-75
2021/11/10 11:40:48;;;;;;;8.68;4.03;;;18.00;67.90;;;;;;4847786;29;20117;-76
2021/11/10 11:43:16;;;;;;;7.93;3.30;;;18.00;67.80;;;;;;4848042;29;20447;-76
2021/11/10 11:45:46;;;;;;;11.07;4.30;;;18.10;67.80;;;;;;4847409;29;20132;-75
2021/11/10 11:48:14;;;;;;;10.93;4.35;;;18.20;67.50;;;;;;4831598;29;20094;-75
2021/11/10 11:50:39;;;;;;;13.65;4.22;;;18.30;67.30;;;;;;4847363;29;20050;-76
2021/11/10 11:53:07;;;;;;;9.85;4.13;;;18.30;67.30;;;;;;4847341;29;20122;-76
2021/11/10 11:55:38;;;;;;;7.95;3.78;;;18.30;67.20;;;;;;4847479;29;20050;-76
2021/11/10 11:58:12;;;;;;;7.88;3.58;;;18.30;67.20;;;;;;4847464;29;20049;-77
2021/11/10 12:00:43;;;;;;;;;;;18.30;67.20;;;;;;4848443;29;20114;-76
2021/11/10 12:03:19;;;;;;;12.52;4.22;;;18.30;67.30;;;;;;4847001;29;20355;-76
2021/11/10 12:05:47;;;;;;;10.23;4.38;;;18.30;67.40;;;;;;4847486;29;20445;-77
2021/11/10 12:08:13;;;;;;;7.72;3.50;;;18.30;67.60;;;;;;4847276;29;20062;-76
2021/11/10 12:10:41;;;;;;;8.43;3.35;;;18.20;67.60;;;;;;4847162;29;20124;-77
2021/11/10 12:13:17;;;;;;;9.32;4.25;;;18.20;67.70;;;;;;4847729;29;20095;-75
2021/11/10 12:16:09;;;;;;;10.32;4.45;;;18.10;67.70;;;;;;4847221;29;20121;-74
2021/11/10 12:18:43;;;;;;;7.00;3.67;;;18.10;67.70;;;;;;4847140;29;20406;-75
2021/11/10 12:21:09;;;;;;;10.43;4.03;;;18.10;67.90;;;;;;4846977;29;20130;-77
2021/11/10 12:23:50;;;;;;;7.38;3.83;;;18.00;68.10;;;;;;4847049;29;20381;-76
2021/11/10 12:26:17;;;;;;;12.57;4.32;;;18.00;68.10;;;;;;4847726;29;20053;-75
2021/11/10 12:28:55;;;;;;;8.20;4.65;;;17.90;68.30;;;;;;4847187;29;20100;-74
2021/11/10 12:31:36;;;;;;;8.73;4.13;;;17.90;68.20;;;;;;4846963;29;20126;-74
2021/11/10 12:34:04;;;;;;;9.95;4.60;;;17.90;68.30;;;;;;4846874;29;20049;-75
2021/11/10 12:37:04;;;;;;;12.77;4.25;;;17.80;68.50;;;;;;4847078;29;20066;-76
2021/11/10 12:39:36;;;;;;;10.13;4.03;;;17.80;68.40;;;;;;4801074;29;20130;-75
2021/11/10 12:42:13;;;;;;;11.18;4.60;;;17.70;68.60;;;;;;4846908;29;20354;-74
2021/11/10 12:44:51;;;;;;;10.75;3.80;;;17.70;68.70;;;;;;4845595;29;20046;-75
2021/11/10 12:47:37;;;;;;;9.88;4.40;;;17.70;68.80;;;;;;4846864;29;20141;-75
2021/11/10 12:50:34;;;;;;;11.98;4.60;;;17.60;68.90;;;;;;4846803;29;20054;-75
2021/11/10 12:53:02;;;;;;;16.88;5.47;;;17.60;68.70;;;;;;4846366;29;20384;-74
2021/11/10 12:55:30;;;;;;;12.73;5.07;;;17.60;69.00;;;;;;4846507;29;20077;-74
2021/11/10 12:57:58;;;;;;;14.55;4.82;;;17.60;69.10;;;;;;4830383;29;20093;-76
2021/11/10 13:00:26;;;;;;;9.90;5.15;;;17.50;69.10;;;;;;4846055;29;20144;-75
2021/11/10 13:02:55;;;;;;;10.55;5.15;;;17.50;69.20;;;;;;4846170;29;20065;-73
2021/11/10 13:05:30;;;;;;;11.25;4.60;;;17.50;69.20;;;;;;4830271;29;20054;-75
2021/11/10 13:08:05;;;;;;;13.52;5.30;;;17.50;69.20;;;;;;4846398;29;20038;-74
2021/11/10 13:10:33;;;;;;;13.52;5.45;;;17.50;69.30;;;;;;4846117;29;20113;-75
2021/11/10 13:13:05;;;;;;;11.93;4.80;;;17.40;69.40;;;;;;4830600;29;20061;-75
2021/11/10 13:15:31;;;;;;;10.95;5.20;;;17.40;69.60;;;;;;4846631;29;20361;-75
2021/11/10 13:17:57;;;;;;;9.13;5.05;;;17.40;69.70;;;;;;4845990;29;20141;-74
2021/11/10 13:20:23;;;;;;;6.93;4.63;;;17.40;69.70;;;;;;4845916;29;20061;-74
2021/11/10 13:22:50;;;;;;;9.13;4.70;;;17.40;69.80;;;;;;4846199;29;20068;-74
2021/11/10 13:25:18;;;;;;;10.00;5.07;;;17.30;69.80;;;;;;4845989;29;20060;-76
2021/11/10 13:27:58;;;;;;;13.18;5.63;;;17.40;69.90;;;;;;4845846;29;20061;-76
2021/11/10 13:30:40;;;;;;;9.80;4.80;;;17.30;69.70;;;;;;4846151;29;20082;-74
2021/11/10 13:33:16;;;;;;;10.75;5.43;;;17.30;69.70;;;;;;4830515;29;20129;-74
2021/11/10 13:35:42;;;;;;;8.85;4.68;;;17.30;69.90;;;;;;4845930;29;20070;-74
2021/11/10 13:38:08;;;;;;;11.32;5.38;;;17.30;70.00;;;;;;4845576;29;20061;-75
2021/11/10 13:40:34;;;;;;;8.15;4.88;;;17.30;70.10;;;;;;4829484;29;20370;-73
2021/11/10 13:43:00;;;;;;;8.35;4.50;;;17.30;70.10;;;;;;4830102;29;20057;-73
2021/11/10 13:45:30;;;;;;;8.95;4.70;;;17.30;70.00;;;;;;4845436;29;20057;-73
2021/11/10 13:48:06;;;;;;;8.93;4.70;;;17.30;70.10;;;;;;4830243;29;20062;-75
2021/11/10 13:50:41;;;;;;;8.35;4.65;;;17.20;70.00;;;;;;4814411;29;20054;-74
2021/11/10 13:53:13;;;;;;;8.05;4.97;;;17.20;70.10;;;;;;4829809;29;20053;-74
2021/11/10 13:55:45;;;;;;;9.32;5.05;;;17.20;70.00;;;;;;4844942;29;20054;-73
2021/11/10 13:58:17;;;;;;;8.98;5.45;;;17.20;70.10;;;;;;4829532;29;20065;-76
2021/11/10 14:00:46;;;;;;;8.35;4.85;;;17.30;70.10;;;;;;4814151;29;20096;-75
2021/11/10 14:03:24;;;;;;;10.35;5.43;;;17.20;70.10;;;;;;4829294;29;20054;-74
2021/11/10 14:05:51;;;;;;;6.72;4.57;;;17.30;70.10;;;;;;4829567;29;20346;-76
2021/11/10 14:08:19;;;;;;;9.57;5.22;;;17.30;70.10;;;;;;4845627;29;20054;-74
2021/11/10 14:10:45;;;;;;;11.35;5.07;;;17.20;70.10;;;;;;4829449;29;20434;-73
2021/11/10 14:13:10;;;;;;;9.52;4.53;;;17.20;70.10;;;;;;4845033;29;20064;-75
2021/11/10 14:15:43;;;;;;;14.90;5.50;;;17.30;70.00;;;;;;4828861;29;20385;-76
2021/11/10 14:18:14;;;;;;;12.50;7.43;;;17.30;69.80;;;;;;4828930;29;20136;-73
2021/11/10 14:20:49;;;;;;;18.88;7.85;;;17.30;69.80;;;;;;4844885;29;20113;-76
2021/11/10 14:23:25;;;;;;;11.18;6.68;;;17.20;69.60;;;;;;4829163;29;20062;-74
2021/11/10 14:25:55;;;;;;;16.17;6.03;;;17.20;69.70;;;;;;4829059;29;20061;-74
2021/11/10 14:28:31;;;;;;;14.68;5.80;;;17.20;69.70;;;;;;4844501;29;20042;-75
2021/11/10 14:31:02;;;;;;;10.82;5.20;;;17.20;69.60;;;;;;4844751;29;20189;-74
2021/11/10 14:33:34;;;;;;;8.60;4.75;;;17.30;69.80;;;;;;4829112;29;20058;-74
2021/11/10 14:36:09;;;;;;;10.00;4.60;;;17.40;69.80;;;;;;4828449;29;20054;-73
2021/11/10 14:38:48;;;;;;;8.70;4.90;;;17.60;69.80;;;;;;4845010;29;20133;-74
2021/11/10 14:41:19;;;;;;;18.55;4.63;;;17.70;69.80;;;;;;4844578;29;20133;-73
2021/11/10 14:43:56;;;;;;;10.05;4.60;;;17.80;69.70;;;;;;4844787;29;20085;-74
2021/11/10 14:46:42;;;;;;;11.90;4.57;;;17.80;69.60;;;;;;4845431;29;20133;-75
2021/11/10 14:49:30;;;;;;;9.57;4.88;;;17.90;69.70;;;;;;4844456;29;20094;-74
2021/11/10 14:52:02;;;;;;;7.90;4.45;;;17.90;69.70;;;;;;4844923;29;20334;-76
2021/11/10 14:54:38;;;;;;;9.45;4.22;;;17.90;69.70;;;;;;4844746;29;20046;-76
2021/11/10 14:57:11;;;;;;;7.65;3.85;;;17.90;69.80;;;;;;4844567;29;20338;-74
2021/11/10 14:59:40;;;;;;;7.82;3.97;;;17.90;69.80;;;;;;4845214;29;20358;-76
2021/11/10 15:02:06;;;;;;;8.43;3.78;;;18.00;70.00;;;;;;4842689;29;20045;-77
2021/11/10 15:04:53;;;;;;;11.57;4.40;;;18.00;70.10;;;;;;4841127;29;20090;-78
2021/11/10 15:11:26;;;;;;;11.90;5.10;;;18.00;70.30;;;;;;4826080;29;20369;-79
2021/11/10 15:13:52;;;;;;;11.32;4.28;;;18.00;70.40;;;;;;4810902;29;20058;-77
2021/11/10 15:16:31;;;;;;;10.73;5.65;;;18.00;70.40;;;;;;4827921;29;20446;-75
2021/11/10 15:18:57;;;;;;;13.02;6.32;;;18.00;70.40;;;;;;4844074;29;20086;-75
2021/11/10 15:21:30;;;;;;;13.77;5.82;;;18.00;70.30;;;;;;4828236;29;20058;-74
2021/11/10 15:24:08;;;;;;;10.55;5.13;;;18.10;70.40;;;;;;4844230;29;20351;-75
2021/11/10 15:26:35;;;;;;;9.40;4.50;;;18.10;70.20;;;;;;4844156;29;20038;-76
2021/11/10 15:29:03;;;;;;;10.95;5.18;;;18.20;70.10;;;;;;4843965;29;20041;-79
2021/11/10 15:31:29;;;;;;;16.98;5.32;;;18.30;70.10;;;;;;4844308;29;20126;-78
2021/11/10 15:33:56;;;;;;;12.93;4.53;;;18.40;70.00;;;;;;4827929;29;20481;-73
2021/11/10 15:36:22;;;;;;;9.95;3.97;;;18.40;69.70;;;;;;4843922;29;20094;-80
2021/11/10 15:38:50;;;;;;;12.10;4.00;;;18.50;69.50;;;;;;4826592;29;20118;-78
2021/11/10 15:41:19;;;;;;;14.25;5.93;;;18.50;69.60;;;;;;4844174;29;20073;-78
2021/11/10 15:43:45;;;;;;;13.88;5.13;;;18.60;69.60;;;;;;4844027;29;20128;-78
2021/11/10 15:46:11;;;;;;;18.75;8.77;;;18.60;69.60;;;;;;4844074;29;20053;-76
2021/11/10 15:48:38;;;;;;;28.85;13.02;;;18.60;69.70;;;;;;4844141;29;20054;-77
2021/11/10 15:51:05;;;;;;;33.03;15.23;;;18.60;70.00;;;;;;4844181;29;20042;-77
2021/11/10 15:53:33;;;;;;;35.35;16.58;;;18.70;70.20;;;;;;4827851;29;20137;-75
2021/11/10 15:55:58;;;;;;;30.75;15.05;;;18.70;70.20;;;;;;4844321;29;20133;-76
2021/11/10 15:58:25;;;;;;;30.15;15.05;;;18.70;70.00;;;;;;4843719;29;20137;-77
2021/11/10 16:00:55;;;;;;;26.92;15.55;;;18.70;70.00;;;;;;4858272;29;20053;-71
2021/11/10 16:03:24;;;;;;;40.47;20.08;;;18.60;70.30;;;;;;4827953;29;20462;-75
2021/11/10 16:05:51;;;;;;;29.45;15.45;;;18.60;70.90;;;;;;4843469;29;20046;-75
2021/11/10 16:08:18;;;;;;;26.25;13.55;;;18.60;71.20;;;;;;4843841;29;20132;-74
2021/11/10 16:10:46;;;;;;;26.75;14.73;;;18.60;71.60;;;;;;4813005;29;20058;-76
2021/11/10 16:13:14;;;;;;;26.50;14.52;;;18.50;71.80;;;;;;4843569;29;20061;-76
2021/11/10 16:15:40;;;;;;;29.88;14.98;;;18.50;72.10;;;;;;4844100;29;20054;-76
2021/11/10 16:18:07;;;;;;;23.65;13.55;;;18.50;72.40;;;;;;4827803;29;20057;-75
2021/11/10 16:20:33;;;;;;;24.95;13.68;;;18.50;72.60;;;;;;4861316;29;20050;-74
2021/11/10 16:23:00;;;;;;;28.55;12.77;;;18.40;73.00;;;;;;4847263;29;20061;-75
2021/11/10 16:25:26;;;;;;;19.35;11.98;;;18.40;72.90;;;;;;4847491;29;20046;-75
2021/11/10 16:27:58;;;;;;;23.13;12.43;;;18.40;73.00;;;;;;4846818;29;20056;-73
2021/11/10 16:30:37;;;;;;;22.77;10.98;;;18.40;73.10;;;;;;4830641;29;20064;-75
2021/11/10 16:33:13;;;;;;;17.80;11.05;;;18.40;73.10;;;;;;4847305;29;20114;-73
2021/11/10 16:35:43;;;;;;;22.55;11.27;;;18.40;73.20;;;;;;4846602;29;20144;-73
2021/11/10 16:38:09;;;;;;;20.73;11.02;;;18.40;73.20;;;;;;4830726;29;20053;-73
2021/11/10 16:40:34;;;;;;;19.60;10.32;;;18.30;73.10;;;;;;4846796;29;20357;-75
2021/11/10 16:43:00;;;;;;;18.83;9.68;;;18.30;72.90;;;;;;4846725;29;20050;-73
2021/11/10 16:45:27;;;;;;;22.50;11.02;;;18.30;72.70;;;;;;4846852;29;20461;-73
2021/11/10 16:47:53;;;;;;;17.50;9.48;;;18.30;73.00;;;;;;4830707;29;20053;-73
2021/11/10 16:50:18;;;;;;;24.88;10.20;;;18.30;72.70;;;;;;4846281;29;20461;-72
2021/11/10 16:52:44;;;;;;;20.77;9.77;;;18.30;73.00;;;;;;4830571;29;20141;-73
2021/11/10 16:55:11;;;;;;;16.73;9.57;;;18.30;72.80;;;;;;4846442;29;20144;-75
2021/11/10 16:57:44;;;;;;;20.17;10.45;;;18.30;72.30;;;;;;4846718;29;20093;-74
2021/11/10 17:00:12;;;;;;;21.80;10.82;;;18.30;71.20;;;;;;4846638;29;20085;-74
2021/11/10 17:02:39;;;;;;;22.73;9.93;;;18.30;71.20;;;;;;4846381;29;20062;-73
2021/11/10 17:05:07;;;;;;;19.80;8.85;;;18.20;70.60;;;;;;4830159;29;20054;-74
2021/11/10 17:07:33;;;;;;;20.27;9.95;;;18.20;70.70;;;;;;4846219;29;20064;-73
2021/11/10 17:09:59;;;;;;;18.85;8.70;;;18.20;70.80;;;;;;4846516;29;20357;-75
2021/11/10 17:12:25;;;;;;;21.40;9.25;;;18.20;71.20;;;;;;4830433;29;20158;-73
2021/11/10 17:14:51;;;;;;;18.02;9.00;;;18.20;71.20;;;;;;4846297;29;20517;-77
2021/11/10 17:17:25;;;;;;;18.88;8.88;;;18.20;71.40;;;;;;4829829;29;20066;-73
2021/11/10 17:19:52;;;;;;;21.23;8.07;;;18.20;71.50;;;;;;4846109;29;20057;-74
2021/11/10 17:22:17;;;;;;;15.07;7.55;;;18.20;71.60;;;;;;4846429;29;20468;-73
2021/11/10 17:24:43;;;;;;;16.92;8.07;;;18.20;71.60;;;;;;4846261;29;20050;-73
2021/11/10 17:27:09;;;;;;;16.40;8.25;;;18.10;71.70;;;;;;4846299;29;20061;-75
2021/11/10 17:29:35;;;;;;;15.05;7.20;;;18.10;71.70;;;;;;4845865;29;20362;-74
2021/11/10 17:32:00;;;;;;;17.35;7.55;;;18.10;71.60;;;;;;4828792;29;20089;-74
2021/11/10 17:34:27;;;;;;;14.60;7.60;;;18.10;71.60;;;;;;4845594;29;20064;-74
2021/11/10 17:36:52;;;;;;;16.77;7.65;;;18.10;71.60;;;;;;4829398;29;20140;-74
2021/11/10 17:39:18;;;;;;;16.20;8.02;;;18.10;71.80;;;;;;4830460;29;20145;-74
2021/11/10 17:41:45;;;;;;;15.32;7.88;;;18.00;71.70;;;;;;4846467;29;20056;-73
2021/11/10 17:44:11;;;;;;;15.15;7.82;;;18.00;71.70;;;;;;4845850;29;20533;-74
2021/11/10 17:46:38;;;;;;;17.52;6.45;;;18.00;71.80;;;;;;4845801;29;20089;-75
2021/11/10 17:49:04;;;;;;;12.63;7.13;;;17.90;71.70;;;;;;4846002;29;20157;-75
2021/11/10 17:51:30;;;;;;;13.55;7.07;;;17.90;71.80;;;;;;4829472;29;20085;-74
2021/11/10 17:54:01;;;;;;;12.73;6.88;;;17.90;71.80;;;;;;4845701;29;20095;-74
2021/11/10 17:56:28;;;;;;;14.80;7.10;;;17.90;71.90;;;;;;4829552;29;20049;-75
2021/11/10 17:58:54;;;;;;;14.25;7.53;;;17.90;71.90;;;;;;4829628;29;20121;-74
2021/11/10 18:01:20;;;;;;;14.80;7.82;;;17.90;71.90;;;;;;4845244;29;20050;-73
2021/11/10 18:03:45;;;;;;;16.38;7.32;;;17.80;71.90;;;;;;4829966;29;20530;-76
2021/11/10 18:06:11;;;;;;;14.45;6.65;;;17.80;71.90;;;;;;4829192;29;20114;-72
2021/11/10 18:08:38;;;;;;;12.70;7.35;;;17.80;72.00;;;;;;4830110;29;20129;-76
2021/11/10 18:11:08;;;;;;;13.85;6.85;;;17.80;72.00;;;;;;4829293;29;20058;-75
2021/11/10 18:13:35;;;;;;;12.60;6.80;;;17.80;71.90;;;;;;4859787;29;20054;-75
2021/11/10 18:16:02;;;;;;;11.60;6.90;;;17.80;71.90;;;;;;4844825;29;20514;-74
2021/11/10 18:18:27;;;;;;;13.57;7.43;;;17.80;72.00;;;;;;4845006;29;20069;-75
2021/11/10 18:20:53;;;;;;;10.73;7.20;;;17.80;71.90;;;;;;4844851;29;20391;-74
2021/11/10 18:23:19;;;;;;;11.90;7.30;;;17.70;71.90;;;;;;4829052;29;20407;-75
2021/11/10 18:25:45;;;;;;;12.55;7.57;;;17.70;71.90;;;;;;4845170;29;20061;-72